Time;durP1;ratioP1;P1;durP2;ratioP2;P2;SDS_P1;SDS_P2;PMS_P1;PMS_P2;Temp;Humidity;BMP_temperature;BMP_pressure;BME280_temperature;BME280_humidity;BME280_pressure;Samples;Min_cycle;Max_cycle;Signal;HPM_P1;HPM_P2
2022/09/17 00:00:17;;;;;;;5.25;0.65;;;11.60;99.90;;;;;;5028426;28;20044;-71
2022/09/17 00:02:46;;;;;;;4.32;0.52;;;11.60;99.90;;;;;;5028756;28;20038;-68
2022/09/17 00:05:12;;;;;;;7.35;1.33;;;11.60;99.90;;;;;;5027514;28;20030;-70
2022/09/17 00:07:37;;;;;;;9.65;0.90;;;11.60;99.90;;;;;;5026075;28;20743;-69
2022/09/17 00:10:04;;;;;;;10.02;0.85;;;11.50;99.90;;;;;;5039321;28;20494;-70
2022/09/17 00:12:31;;;;;;;5.10;0.93;;;11.50;99.90;;;;;;5038634;28;20038;-71
2022/09/17 00:14:56;;;;;;;13.02;1.33;;;11.50;99.90;;;;;;5032718;28;20405;-71
2022/09/17 00:17:22;;;;;;;4.00;0.60;;;11.50;99.90;;;;;;5024880;28;20037;-70
2022/09/17 00:19:48;;;;;;;7.68;1.90;;;11.40;99.90;;;;;;5027937;28;20025;-71
2022/09/17 00:22:14;;;;;;;8.02;0.90;;;11.40;99.90;;;;;;5026374;28;20043;-69
2022/09/17 00:24:40;;;;;;;6.05;0.70;;;11.30;99.90;;;;;;5027823;28;20080;-71
2022/09/17 00:27:06;;;;;;;5.80;0.60;;;11.30;99.90;;;;;;5027827;28;20081;-68
2022/09/17 00:29:32;;;;;;;4.95;0.70;;;11.30;99.90;;;;;;5027841;28;20044;-70
2022/09/17 00:31:57;;;;;;;8.55;1.23;;;11.40;99.90;;;;;;5027491;28;20451;-71
2022/09/17 00:34:23;;;;;;;7.20;0.70;;;11.40;99.90;;;;;;5027188;28;20026;-71
2022/09/17 00:36:48;;;;;;;5.07;0.88;;;11.50;99.90;;;;;;5028368;28;20045;-71
2022/09/17 00:39:15;;;;;;;10.40;1.30;;;11.50;99.90;;;;;;5027195;28;20029;-70
2022/09/17 00:41:41;;;;;;;12.75;1.55;;;11.50;99.90;;;;;;5028022;28;20490;-71
2022/09/17 00:44:40;;;;;;;7.85;1.35;;;11.50;99.90;;;;;;5026832;28;20394;-71
2022/09/17 00:47:40;;;;;;;12.18;1.05;;;11.50;99.90;;;;;;5030934;28;20045;-70
2022/09/17 00:50:09;;;;;;;4.18;0.60;;;11.40;99.90;;;;;;5031787;28;20459;-71
2022/09/17 00:52:43;;;;;;;6.07;0.82;;;11.40;99.90;;;;;;5030398;28;20034;-70
2022/09/17 00:55:16;;;;;;;8.43;0.93;;;11.40;99.90;;;;;;5025462;28;20037;-71
2022/09/17 00:57:44;;;;;;;7.57;1.17;;;11.30;99.90;;;;;;5028357;28;20126;-70
2022/09/17 01:00:12;;;;;;;6.13;0.63;;;11.30;99.90;;;;;;5033789;28;20103;-72
2022/09/17 01:02:38;;;;;;;5.20;0.85;;;11.30;99.90;;;;;;5028835;28;20033;-68
2022/09/17 01:05:06;;;;;;;8.30;1.55;;;11.30;99.90;;;;;;5027141;28;20720;-72
2022/09/17 01:08:02;;;;;;;5.32;0.90;;;11.30;99.90;;;;;;5026208;28;20044;-70
2022/09/17 01:10:57;;;;;;;9.02;0.75;;;11.20;99.90;;;;;;5023777;28;20099;-69
2022/09/17 01:13:32;;;;;;;8.48;1.55;;;11.20;99.90;;;;;;5022136;28;20033;-70
2022/09/17 01:15:58;;;;;;;12.40;1.08;;;11.20;99.90;;;;;;5023648;28;20128;-71
2022/09/17 01:18:38;;;;;;;5.45;0.65;;;11.10;99.90;;;;;;5025406;28;20053;-70
2022/09/17 01:21:43;;;;;;;8.23;1.02;;;11.10;99.90;;;;;;5026176;28;20052;-70
2022/09/17 01:24:43;;;;;;;7.63;1.25;;;11.10;99.90;;;;;;5022154;28;20045;-70
2022/09/17 01:27:27;;;;;;;6.53;0.70;;;11.10;99.90;;;;;;5024763;28;20022;-70
2022/09/17 01:30:13;;;;;;;3.92;0.65;;;11.10;99.90;;;;;;5029127;28;20040;-68
2022/09/17 01:32:49;;;;;;;5.70;1.20;;;11.10;99.90;;;;;;5036556;28;20120;-70
2022/09/17 01:35:33;;;;;;;4.68;0.88;;;11.10;99.90;;;;;;5029347;28;20032;-70
2022/09/17 01:38:12;;;;;;;10.90;1.40;;;11.10;99.90;;;;;;5019483;28;20037;-73
2022/09/17 01:41:06;;;;;;;8.53;1.43;;;11.10;99.90;;;;;;5020399;28;20041;-70
2022/09/17 01:43:37;;;;;;;5.40;0.50;;;11.10;99.90;;;;;;5023035;28;20306;-70
2022/09/17 01:46:27;;;;;;;4.88;0.68;;;11.20;99.90;;;;;;5018470;28;20030;-70
2022/09/17 01:48:58;;;;;;;2.63;0.40;;;11.20;99.90;;;;;;5021943;28;20041;-67
2022/09/17 01:51:26;;;;;;;10.18;0.93;;;11.30;99.90;;;;;;5026317;28;20048;-70
2022/09/17 01:54:00;;;;;;;5.82;0.68;;;11.30;99.90;;;;;;5026514;28;20410;-70
2022/09/17 01:56:34;;;;;;;6.30;1.02;;;11.30;99.90;;;;;;5026073;28;20049;-71
2022/09/17 01:59:26;;;;;;;7.05;1.15;;;11.30;99.90;;;;;;5027313;28;20045;-71
2022/09/17 02:01:57;;;;;;;5.25;0.95;;;11.40;99.90;;;;;;5019502;28;20064;-71
2022/09/17 02:04:27;;;;;;;5.18;1.63;;;11.40;99.90;;;;;;5029787;28;20037;-70
2022/09/17 02:07:01;;;;;;;7.78;0.85;;;11.40;99.90;;;;;;5034059;28;20108;-68
2022/09/17 02:09:41;;;;;;;9.70;0.57;;;11.40;99.90;;;;;;5033954;28;20451;-72
2022/09/17 02:12:11;;;;;;;5.40;0.60;;;11.40;99.90;;;;;;5035991;28;20075;-73
2022/09/17 02:14:40;;;;;;;;;;;11.30;99.90;;;;;;5035608;28;20322;-72
2022/09/17 02:17:28;;;;;;;6.88;1.38;;;11.30;99.90;;;;;;5038792;28;19948;-72
2022/09/17 02:19:55;;;;;;;4.05;1.13;;;11.30;99.90;;;;;;5039135;28;20032;-71
2022/09/17 02:22:26;;;;;;;6.28;0.60;;;11.30;99.90;;;;;;5039535;28;20056;-69
2022/09/17 02:25:05;;;;;;;4.47;0.45;;;11.20;99.90;;;;;;5030959;28;20113;-70
2022/09/17 02:28:08;;;;;;;5.20;0.75;;;11.20;99.90;;;;;;5020396;28;20437;-71
2022/09/17 02:30:34;;;;;;;12.80;1.33;;;11.20;99.90;;;;;;5017970;28;20064;-72
2022/09/17 02:33:03;;;;;;;5.78;0.70;;;11.30;99.90;;;;;;5023255;28;20594;-70
2022/09/17 02:35:30;;;;;;;7.50;0.82;;;11.30;99.90;;;;;;5025534;28;20033;-68
2022/09/17 02:37:56;;;;;;;6.28;0.73;;;11.20;99.90;;;;;;5025448;28;20099;-71
2022/09/17 02:40:26;;;;;;;9.25;1.00;;;11.20;99.90;;;;;;5023999;28;20037;-66
2022/09/17 02:43:10;;;;;;;2.42;0.30;;;11.20;99.90;;;;;;5023398;28;20033;-68
2022/09/17 02:45:55;;;;;;;4.45;1.08;;;11.10;99.90;;;;;;5025512;28;20051;-68
2022/09/17 02:49:00;;;;;;;6.15;0.57;;;11.10;99.90;;;;;;5025559;28;20379;-70
2022/09/17 02:51:43;;;;;;;3.90;1.27;;;11.00;99.90;;;;;;5033903;28;20041;-71
2022/09/17 02:54:33;;;;;;;3.75;0.20;;;11.00;99.90;;;;;;5037531;28;20041;-68
2022/09/17 02:57:24;;;;;;;9.07;1.05;;;10.90;99.90;;;;;;5028122;28;20505;-72
2022/09/17 03:00:03;;;;;;;8.32;0.52;;;10.90;99.90;;;;;;5022676;28;20104;-70
2022/09/17 03:02:38;;;;;;;10.35;0.70;;;11.00;99.90;;;;;;5027383;28;20490;-69
2022/09/17 03:05:07;;;;;;;10.68;0.82;;;11.00;99.90;;;;;;5024243;28;20040;-69
2022/09/17 03:07:32;;;;;;;9.18;1.27;;;11.00;99.90;;;;;;5032804;28;20288;-70
2022/09/17 03:09:59;;;;;;;6.95;0.93;;;11.00;99.90;;;;;;5035822;28;20033;-71
2022/09/17 03:12:25;;;;;;;3.40;0.60;;;11.00;99.90;;;;;;5034224;28;20839;-67
2022/09/17 03:14:51;;;;;;;7.85;0.90;;;10.90;99.90;;;;;;5030433;28;20083;-70
2022/09/17 03:17:17;;;;;;;7.20;0.50;;;10.90;99.90;;;;;;5028712;28;20037;-70
2022/09/17 03:19:43;;;;;;;9.18;1.15;;;10.90;99.90;;;;;;5030181;28;20040;-69
2022/09/17 03:22:08;;;;;;;8.45;1.42;;;10.80;99.90;;;;;;5028571;28;20029;-69
2022/09/17 03:24:34;;;;;;;12.75;0.93;;;10.70;99.90;;;;;;5028419;28;20036;-70
2022/09/17 03:27:00;;;;;;;12.65;0.90;;;10.70;99.90;;;;;;5033751;28;20017;-70
2022/09/17 03:29:25;;;;;;;10.10;0.82;;;10.60;99.90;;;;;;5036286;28;20063;-72
2022/09/17 03:31:51;;;;;;;5.45;0.60;;;10.60;99.90;;;;;;5035353;28;20029;-70
2022/09/17 03:34:17;;;;;;;7.20;0.90;;;10.60;99.90;;;;;;5020145;28;20033;-71
2022/09/17 03:36:42;;;;;;;3.53;0.70;;;10.60;99.90;;;;;;5029895;28;20179;-72
2022/09/17 03:39:08;;;;;;;6.60;1.70;;;10.60;99.90;;;;;;5028823;28;20040;-71
2022/09/17 03:41:33;;;;;;;7.43;1.27;;;10.60;99.90;;;;;;5029083;28;20030;-70
2022/09/17 03:43:59;;;;;;;6.32;1.05;;;10.60;99.90;;;;;;5026854;28;20036;-70
2022/09/17 03:46:24;;;;;;;9.38;0.90;;;10.50;99.90;;;;;;5028641;28;20030;-69
2022/09/17 03:48:50;;;;;;;9.23;0.80;;;10.50;99.90;;;;;;5029355;28;20029;-70
2022/09/17 03:51:16;;;;;;;12.82;1.40;;;10.50;99.90;;;;;;5027958;28;20025;-70
2022/09/17 03:53:41;;;;;;;9.30;0.98;;;10.50;99.90;;;;;;5028478;28;20053;-71
2022/09/17 03:56:07;;;;;;;8.40;1.38;;;10.50;99.90;;;;;;5028896;28;20029;-70
2022/09/17 03:58:34;;;;;;;8.55;1.35;;;10.50;99.90;;;;;;5029237;28;20064;-71
2022/09/17 04:00:59;;;;;;;8.82;0.70;;;10.50;99.90;;;;;;5023243;28;20033;-70
2022/09/17 04:03:27;;;;;;;8.95;0.88;;;10.40;99.90;;;;;;5027527;28;20481;-69
2022/09/17 04:05:53;;;;;;;5.70;0.60;;;10.50;99.90;;;;;;5032467;28;20067;-70
2022/09/17 04:08:19;;;;;;;8.98;0.70;;;10.50;99.90;;;;;;5036136;28;20046;-70
2022/09/17 04:10:45;;;;;;;6.78;0.80;;;10.40;99.90;;;;;;5041416;28;20059;-72
2022/09/17 04:13:11;;;;;;;7.03;1.15;;;10.40;99.90;;;;;;5040844;28;20034;-72
2022/09/17 04:15:37;;;;;;;10.57;1.20;;;10.40;99.90;;;;;;5038542;28;20035;-69
2022/09/17 04:18:03;;;;;;;5.63;0.68;;;10.30;99.90;;;;;;5028760;28;20045;-69
2022/09/17 04:20:28;;;;;;;7.20;1.00;;;10.30;99.90;;;;;;5028646;28;20061;-69
2022/09/17 04:22:54;;;;;;;4.10;0.77;;;10.30;99.90;;;;;;5028012;28;20047;-69
2022/09/17 04:25:20;;;;;;;5.40;1.00;;;10.20;99.90;;;;;;5022994;28;20034;-70
2022/09/17 04:27:46;;;;;;;6.25;1.10;;;10.20;99.90;;;;;;5024444;28;20134;-69
2022/09/17 04:30:13;;;;;;;4.93;0.40;;;10.20;99.90;;;;;;5027077;28;20038;-69
2022/09/17 04:32:39;;;;;;;4.80;0.63;;;10.10;99.90;;;;;;5024016;28;20042;-69
2022/09/17 04:35:04;;;;;;;7.22;0.55;;;10.10;99.90;;;;;;5027313;28;20110;-71
2022/09/17 04:37:30;;;;;;;5.65;1.88;;;10.10;99.90;;;;;;5026416;28;20052;-70
2022/09/17 04:39:55;;;;;;;2.72;1.17;;;10.00;99.90;;;;;;5027647;28;20095;-70
2022/09/17 04:42:21;;;;;;;3.05;0.50;;;10.00;99.90;;;;;;5027172;28;20048;-70
2022/09/17 04:44:47;;;;;;;6.57;0.70;;;10.00;99.90;;;;;;5027845;28;20053;-69
2022/09/17 04:47:13;;;;;;;10.27;0.60;;;9.90;99.90;;;;;;5027146;28;20037;-70
2022/09/17 04:49:38;;;;;;;4.35;1.35;;;9.90;99.90;;;;;;5033658;28;20030;-70
2022/09/17 04:52:04;;;;;;;9.20;0.88;;;9.90;99.90;;;;;;5035226;28;20033;-71
2022/09/17 04:54:29;;;;;;;5.45;0.75;;;9.90;99.90;;;;;;5032404;28;20022;-67
2022/09/17 04:56:55;;;;;;;7.70;1.30;;;9.90;99.90;;;;;;5023934;28;20598;-70
2022/09/17 04:59:21;;;;;;;6.47;0.70;;;9.90;99.90;;;;;;5027311;28;20040;-69
2022/09/17 05:01:48;;;;;;;6.07;0.45;;;9.90;99.90;;;;;;5027989;28;20022;-69
2022/09/17 05:04:14;;;;;;;10.75;0.90;;;9.90;99.90;;;;;;5025956;28;20044;-68
2022/09/17 05:06:40;;;;;;;18.73;1.02;;;10.00;99.90;;;;;;5027660;28;20065;-70
2022/09/17 05:09:06;;;;;;;9.25;1.88;;;10.10;99.90;;;;;;5027260;28;20022;-70
2022/09/17 05:11:32;;;;;;;8.32;1.13;;;10.10;99.90;;;;;;5027322;28;20124;-71
2022/09/17 05:13:57;;;;;;;10.48;0.80;;;10.10;99.90;;;;;;5026347;28;20029;-69
2022/09/17 05:16:23;;;;;;;12.63;1.42;;;10.20;99.90;;;;;;5033318;28;20062;-70
2022/09/17 05:18:50;;;;;;;2.42;0.85;;;10.30;99.90;;;;;;5036636;28;20052;-71
2022/09/17 05:21:19;;;;;;;4.30;1.67;;;10.40;99.90;;;;;;5030227;28;20486;-69
2022/09/17 05:23:45;;;;;;;7.70;0.47;;;10.40;99.90;;;;;;5021148;28;20049;-72
2022/09/17 05:26:10;;;;;;;4.93;0.45;;;10.50;99.90;;;;;;5032294;28;20033;-70
2022/09/17 05:28:36;;;;;;;4.72;0.45;;;10.50;99.90;;;;;;5038517;28;20037;-71
2022/09/17 05:31:02;;;;;;;3.80;0.32;;;10.50;99.90;;;;;;5032078;28;20088;-70
2022/09/17 05:33:28;;;;;;;3.90;0.75;;;10.50;99.90;;;;;;5026885;28;20191;-69
2022/09/17 05:35:54;;;;;;;11.88;2.08;;;10.50;99.90;;;;;;5027123;28;20041;-70
2022/09/17 05:38:20;;;;;;;7.65;1.38;;;10.50;99.90;;;;;;5026964;28;20029;-69
2022/09/17 05:40:47;;;;;;;4.40;0.30;;;10.50;99.90;;;;;;5027280;28;20033;-69
2022/09/17 05:43:13;;;;;;;6.03;0.30;;;10.60;99.90;;;;;;5025826;28;20146;-67
2022/09/17 05:45:39;;;;;;;6.65;0.50;;;10.50;99.90;;;;;;5022496;28;20170;-70
2022/09/17 05:48:06;;;;;;;8.35;1.02;;;10.50;99.90;;;;;;5026269;28;20063;-70
2022/09/17 05:50:32;;;;;;;2.65;0.40;;;10.50;99.90;;;;;;5016745;28;20049;-70
2022/09/17 05:53:11;;;;;;;5.35;0.32;;;10.60;99.90;;;;;;5025381;28;20041;-70
2022/09/17 05:55:37;;;;;;;7.18;0.70;;;10.50;99.90;;;;;;5021171;28;20707;-70
2022/09/17 05:58:28;;;;;;;1.60;0.10;;;10.50;99.90;;;;;;5022277;28;20549;-69
2022/09/17 06:00:54;;;;;;;5.85;0.75;;;10.50;99.90;;;;;;5022943;28;20068;-67
2022/09/17 06:03:23;;;;;;;3.92;0.20;;;10.40;99.90;;;;;;5024280;28;20517;-70
2022/09/17 06:05:54;;;;;;;1.60;0.20;;;10.40;99.90;;;;;;5026767;28;20033;-69
2022/09/17 06:08:19;;;;;;;;;;;10.30;99.90;;;;;;5023456;28;20038;-72
2022/09/17 06:10:45;;;;;;;5.13;0.20;;;10.30;99.90;;;;;;5027200;28;19921;-69
2022/09/17 06:13:11;;;;;;;2.42;0.40;;;10.30;99.90;;;;;;5032800;28;20074;-70
2022/09/17 06:15:36;;;;;;;2.72;0.30;;;10.30;99.90;;;;;;5024561;28;20075;-69
2022/09/17 06:18:02;;;;;;;2.28;0.40;;;10.20;99.90;;;;;;5023798;28;20029;-69
2022/09/17 06:20:28;;;;;;;5.47;0.85;;;10.20;99.90;;;;;;5031317;28;20061;-69
2022/09/17 06:22:57;;;;;;;2.55;0.22;;;10.30;99.90;;;;;;5035355;28;20045;-70
2022/09/17 06:25:22;;;;;;;1.90;0.20;;;10.30;99.90;;;;;;5026461;28;20029;-69
2022/09/17 06:27:48;;;;;;;4.47;0.30;;;10.30;99.90;;;;;;5026150;28;20091;-69
2022/09/17 06:30:14;;;;;;;1.25;0.10;;;10.30;99.90;;;;;;5024179;28;20041;-71
2022/09/17 06:32:39;;;;;;;5.53;0.70;;;10.30;99.90;;;;;;5022540;28;20442;-70
2022/09/17 06:35:06;;;;;;;5.38;0.60;;;10.40;99.90;;;;;;5025778;28;20044;-69
2022/09/17 06:37:32;;;;;;;7.07;0.95;;;10.50;99.90;;;;;;5025371;28;20038;-68
2022/09/17 06:40:00;;;;;;;6.93;0.40;;;10.60;99.90;;;;;;5028128;28;20087;-68
2022/09/17 06:42:27;;;;;;;4.07;0.77;;;10.60;99.90;;;;;;5029059;28;20033;-68
2022/09/17 06:44:53;;;;;;;4.13;0.60;;;10.70;99.90;;;;;;5036534;28;20034;-68
2022/09/17 06:47:19;;;;;;;2.55;0.50;;;10.80;99.90;;;;;;5039710;28;20043;-70
2022/09/17 06:49:45;;;;;;;4.65;0.30;;;10.80;99.90;;;;;;5042340;28;20350;-69
2022/09/17 06:52:10;;;;;;;7.75;0.60;;;10.90;99.90;;;;;;5043164;28;20049;-69
2022/09/17 06:54:36;;;;;;;2.72;0.47;;;11.00;99.90;;;;;;5041521;28;20036;-69
2022/09/17 06:57:02;;;;;;;2.97;0.63;;;11.00;99.90;;;;;;5041036;28;20057;-67
2022/09/17 06:59:27;;;;;;;5.38;0.45;;;11.10;99.90;;;;;;5041474;28;20038;-69
2022/09/17 07:01:53;;;;;;;3.60;0.45;;;11.30;99.90;;;;;;5028872;28;20022;-70
2022/09/17 07:04:19;;;;;;;2.88;0.57;;;11.40;99.90;;;;;;5014587;28;20048;-70
2022/09/17 07:06:45;;;;;;;5.70;0.60;;;11.60;99.90;;;;;;5016199;28;20041;-70
2022/09/17 07:09:11;;;;;;;3.08;0.17;;;11.70;99.90;;;;;;5011315;28;20104;-70
2022/09/17 07:11:37;;;;;;;8.80;1.05;;;11.70;99.90;;;;;;5018176;28;20022;-71
2022/09/17 07:14:04;;;;;;;3.80;0.57;;;11.70;99.90;;;;;;5017184;28;20053;-72
2022/09/17 07:16:33;;;;;;;5.50;0.63;;;11.70;99.90;;;;;;5018198;28;20556;-72
2022/09/17 07:18:59;;;;;;;2.45;0.68;;;11.80;99.90;;;;;;5015540;28;20037;-70
2022/09/17 07:21:25;;;;;;;7.80;0.63;;;11.90;99.90;;;;;;5023731;28;20124;-72
2022/09/17 07:23:50;;;;;;;11.90;0.80;;;11.90;99.90;;;;;;5028502;28;20037;-69
2022/09/17 07:26:16;;;;;;;11.07;0.68;;;12.00;99.90;;;;;;5030015;28;20037;-70
2022/09/17 07:28:42;;;;;;;4.93;1.65;;;12.10;99.90;;;;;;5026641;28;20449;-71
2022/09/17 07:31:09;;;;;;;4.13;0.50;;;12.20;99.90;;;;;;5023003;28;20041;-70
2022/09/17 07:33:36;;;;;;;2.47;0.70;;;12.30;99.90;;;;;;5023415;28;20037;-70
2022/09/17 07:36:09;;;;;;;4.25;0.52;;;12.40;99.90;;;;;;5024270;28;20327;-69
2022/09/17 07:38:34;;;;;;;5.05;0.35;;;12.40;99.90;;;;;;5025364;28;20029;-70
2022/09/17 07:41:03;;;;;;;4.75;0.40;;;12.40;99.90;;;;;;5026944;28;20128;-70
2022/09/17 07:43:31;;;;;;;3.78;0.60;;;12.40;99.90;;;;;;5015133;28;20037;-70
2022/09/17 07:45:58;;;;;;;3.38;0.60;;;12.30;99.90;;;;;;5023119;28;20041;-70
2022/09/17 07:48:24;;;;;;;6.03;0.52;;;12.40;99.90;;;;;;5026985;28;20532;-70
2022/09/17 07:50:50;;;;;;;4.72;0.35;;;12.50;99.90;;;;;;5027074;28;20029;-72
2022/09/17 07:53:16;;;;;;;4.93;0.70;;;12.70;99.90;;;;;;5026244;28;20091;-69
2022/09/17 07:55:42;;;;;;;3.80;0.60;;;12.90;99.90;;;;;;5025711;28;20029;-71
2022/09/17 07:58:07;;;;;;;4.72;0.88;;;13.10;99.90;;;;;;5027336;28;20528;-68
2022/09/17 08:00:33;;;;;;;4.50;0.50;;;13.10;99.90;;;;;;5027245;28;20113;-67
2022/09/17 08:02:59;;;;;;;5.50;0.43;;;13.10;99.90;;;;;;5031638;28;20136;-70
2022/09/17 08:05:26;;;;;;;8.30;1.02;;;12.90;99.90;;;;;;5035994;28;20103;-70
2022/09/17 08:07:53;;;;;;;2.85;0.20;;;12.90;99.90;;;;;;5034247;28;20398;-70
2022/09/17 08:10:21;;;;;;;2.65;0.28;;;12.70;99.90;;;;;;5026116;28;20516;-69
2022/09/17 08:12:48;;;;;;;3.30;0.10;;;12.50;99.90;;;;;;5027948;28;20033;-70
2022/09/17 08:15:15;;;;;;;2.10;0.40;;;12.40;99.90;;;;;;5023984;28;20042;-71
2022/09/17 08:17:47;;;;;;;0.95;0.30;;;12.40;99.90;;;;;;5013086;28;20038;-67
2022/09/17 08:20:14;;;;;;;6.07;0.40;;;12.60;99.90;;;;;;5024774;28;20033;-68
2022/09/17 08:22:41;;;;;;;5.30;0.45;;;12.90;99.90;;;;;;5021103;28;20128;-69
2022/09/17 08:25:08;;;;;;;1.73;0.30;;;13.00;99.90;;;;;;5019471;28;20040;-70
2022/09/17 08:27:34;;;;;;;1.02;0.40;;;13.10;99.90;;;;;;5022548;28;20132;-70
2022/09/17 08:30:00;;;;;;;2.22;0.50;;;13.20;99.90;;;;;;5020571;28;20117;-71
2022/09/17 08:32:28;;;;;;;6.50;0.50;;;13.20;99.90;;;;;;5023224;28;20148;-72
2022/09/17 08:34:54;;;;;;;1.92;0.20;;;13.20;99.90;;;;;;5021166;28;20094;-71
2022/09/17 08:37:20;;;;;;;9.18;0.70;;;13.00;99.90;;;;;;5026466;28;20037;-70
2022/09/17 08:39:45;;;;;;;2.55;0.15;;;12.80;99.90;;;;;;5027538;28;20044;-70
2022/09/17 08:42:38;;;;;;;2.60;0.10;;;12.60;99.90;;;;;;5027114;28;20029;-69
2022/09/17 08:45:09;;;;;;;1.50;0.10;;;12.40;99.90;;;;;;5019753;28;20049;-70
2022/09/17 08:47:37;;;;;;;2.25;0.30;;;12.20;99.90;;;;;;5027397;28;20061;-72
2022/09/17 08:50:06;;;;;;;1.48;0.10;;;12.10;99.90;;;;;;5026252;28;20072;-67
2022/09/17 08:52:50;;;;;;;4.30;0.20;;;12.00;99.90;;;;;;5026848;28;20478;-70
2022/09/17 08:55:35;;;;;;;2.30;0.43;;;11.90;99.90;;;;;;5026627;28;20033;-70
2022/09/17 08:58:30;;;;;;;3.05;0.20;;;12.00;99.90;;;;;;5026875;28;20041;-70
2022/09/17 09:01:00;;;;;;;3.25;0.43;;;12.30;99.90;;;;;;5023499;28;20052;-70
2022/09/17 09:03:54;;;;;;;5.28;0.95;;;12.50;99.90;;;;;;5022968;28;20166;-71
2022/09/17 09:06:22;;;;;;;2.47;0.60;;;12.70;99.90;;;;;;5026281;28;20034;-70
2022/09/17 09:08:55;;;;;;;6.55;0.38;;;12.70;99.90;;;;;;5027303;28;20049;-69
2022/09/17 09:11:26;;;;;;;4.65;0.45;;;12.70;99.90;;;;;;5026485;28;20541;-71
2022/09/17 09:13:59;;;;;;;;;;;12.60;99.90;;;;;;5023073;28;20030;-70
2022/09/17 09:16:28;;;;;;;3.85;0.57;;;12.50;99.90;;;;;;5023099;28;19913;-70
2022/09/17 09:18:58;;;;;;;7.63;0.70;;;12.40;99.90;;;;;;5023762;28;20509;-70
2022/09/17 09:21:44;;;;;;;5.00;0.43;;;12.40;99.90;;;;;;5023411;28;20397;-70
2022/09/17 09:24:23;;;;;;;2.90;0.40;;;12.30;99.90;;;;;;5029628;28;20025;-71
2022/09/17 09:27:04;;;;;;;5.85;0.52;;;12.30;99.90;;;;;;5037391;28;20397;-70
2022/09/17 09:29:45;;;;;;;4.32;0.60;;;12.40;99.90;;;;;;5031133;28;20056;-72
2022/09/17 09:32:28;;;;;;;4.13;0.50;;;12.50;99.90;;;;;;5028194;28;20171;-70
2022/09/17 09:34:56;;;;;;;8.88;0.52;;;12.70;99.90;;;;;;5025416;28;20045;-71
2022/09/17 09:37:29;;;;;;;1.98;0.20;;;12.90;99.90;;;;;;5021690;28;20041;-71
2022/09/17 09:40:04;;;;;;;2.45;0.40;;;13.00;99.90;;;;;;5023652;28;20045;-70
2022/09/17 09:42:32;;;;;;;5.25;0.50;;;13.10;99.90;;;;;;5024967;28;20033;-71
2022/09/17 09:45:14;;;;;;;3.63;0.25;;;13.30;99.90;;;;;;5025921;28;20029;-71
2022/09/17 09:48:03;;;;;;;4.07;0.30;;;13.40;99.90;;;;;;5026487;28;20037;-72
2022/09/17 09:50:41;;;;;;;4.45;0.40;;;13.50;99.90;;;;;;5021903;28;20061;-68
2022/09/17 09:53:26;;;;;;;5.80;0.40;;;13.60;99.90;;;;;;5025938;28;20079;-71
2022/09/17 09:56:01;;;;;;;4.65;0.30;;;13.80;99.90;;;;;;5020881;28;20103;-71
2022/09/17 09:58:34;;;;;;;5.45;0.82;;;14.00;99.90;;;;;;5022640;28;20045;-71
2022/09/17 10:01:01;;;;;;;2.97;0.40;;;14.10;99.90;;;;;;5025646;28;20034;-71
2022/09/17 10:03:32;;;;;;;4.10;0.50;;;14.40;99.90;;;;;;5025098;28;20037;-71
2022/09/17 10:06:09;;;;;;;1.13;0.50;;;14.70;99.90;;;;;;5025975;28;20618;-70
2022/09/17 10:08:37;;;;;;;4.15;0.63;;;14.90;99.90;;;;;;5025707;28;20034;-69
2022/09/17 10:11:06;;;;;;;4.03;0.65;;;14.80;99.90;;;;;;5026067;28;20036;-70
2022/09/17 10:13:35;;;;;;;6.05;1.15;;;14.60;99.90;;;;;;5025098;28;20041;-71
2022/09/17 10:16:17;;;;;;;3.05;0.20;;;14.30;99.90;;;;;;5023579;28;20052;-71
2022/09/17 10:18:44;;;;;;;9.23;0.73;;;13.90;99.90;;;;;;5025396;28;20095;-68
2022/09/17 10:21:31;;;;;;;2.42;0.10;;;13.70;99.90;;;;;;5026064;28;20393;-70
2022/09/17 10:23:58;;;;;;;2.00;0.20;;;13.40;99.90;;;;;;5021274;28;20033;-69
2022/09/17 10:26:27;;;;;;;3.55;0.20;;;13.40;99.90;;;;;;5020304;28;20029;-70
2022/09/17 10:28:55;;;;;;;2.45;0.10;;;13.40;99.90;;;;;;5019066;28;20257;-69
2022/09/17 10:31:21;;;;;;;0.90;0.13;;;13.50;99.90;;;;;;5017827;28;20612;-70
2022/09/17 10:33:57;;;;;;;3.83;0.80;;;13.60;99.90;;;;;;5020420;28;20057;-70
2022/09/17 10:36:48;;;;;;;2.95;0.20;;;13.60;99.90;;;;;;5014813;28;20401;-69
2022/09/17 10:39:19;;;;;;;2.30;0.20;;;13.70;99.90;;;;;;5017395;28;20124;-69
2022/09/17 10:41:54;;;;;;;1.50;0.22;;;13.80;99.90;;;;;;5020330;28;20033;-67
2022/09/17 10:44:22;;;;;;;3.83;0.40;;;13.90;99.90;;;;;;5017347;28;20091;-71
2022/09/17 10:46:52;;;;;;;2.53;0.40;;;14.00;99.90;;;;;;5018772;28;20497;-69
2022/09/17 10:49:26;;;;;;;0.75;0.17;;;14.00;99.90;;;;;;5026481;28;20037;-70
2022/09/17 10:52:07;;;;;;;4.95;0.60;;;14.10;99.90;;;;;;5026573;28;20088;-69
2022/09/17 10:55:11;;;;;;;5.07;0.50;;;14.20;99.90;;;;;;5020828;28;20072;-71
2022/09/17 10:57:46;;;;;;;4.78;0.30;;;14.30;99.90;;;;;;5017102;28;20540;-71
2022/09/17 11:00:17;;;;;;;5.07;0.35;;;14.30;99.90;;;;;;5016615;28;20184;-71
2022/09/17 11:02:54;;;;;;;5.45;0.80;;;14.50;99.90;;;;;;5016304;28;20087;-73
2022/09/17 11:05:33;;;;;;;4.90;0.80;;;14.70;99.90;;;;;;5016511;28;20113;-70
2022/09/17 11:08:29;;;;;;;4.63;0.70;;;14.80;99.90;;;;;;5018066;28;20317;-72
2022/09/17 11:11:15;;;;;;;5.80;1.15;;;15.00;99.90;;;;;;5015420;28;20494;-72
2022/09/17 11:13:55;;;;;;;5.93;0.40;;;14.90;99.90;;;;;;5018342;28;20080;-71
2022/09/17 11:16:40;;;;;;;7.82;1.10;;;15.00;99.90;;;;;;5017253;28;20042;-71
2022/09/17 11:19:18;;;;;;;13.18;0.77;;;14.90;99.90;;;;;;5023183;28;20040;-72
2022/09/17 11:21:49;;;;;;;3.85;0.47;;;15.00;99.90;;;;;;5024064;28;20037;-71
2022/09/17 11:24:57;;;;;;;5.55;0.98;;;15.00;99.90;;;;;;5024476;28;20041;-70
2022/09/17 11:27:46;;;;;;;2.50;0.20;;;15.00;99.90;;;;;;5003961;28;20049;-71
2022/09/17 11:30:22;;;;;;;3.03;0.68;;;15.20;99.90;;;;;;5001646;28;20085;-71
2022/09/17 11:33:13;;;;;;;9.98;1.55;;;15.30;99.90;;;;;;5010568;28;20068;-70
2022/09/17 11:36:01;;;;;;;3.92;0.70;;;15.30;99.90;;;;;;5023318;28;20045;-71
2022/09/17 11:38:39;;;;;;;4.70;0.98;;;15.30;99.90;;;;;;5020044;28;20113;-71
2022/09/17 11:41:05;;;;;;;3.97;0.80;;;15.30;99.90;;;;;;5019067;28;20130;-71
2022/09/17 11:43:34;;;;;;;5.90;1.05;;;15.30;99.90;;;;;;5025471;28;20273;-71
2022/09/17 11:46:18;;;;;;;12.50;0.85;;;15.30;99.90;;;;;;5031742;28;20186;-71
2022/09/17 11:48:51;;;;;;;4.38;0.75;;;15.30;99.90;;;;;;5023436;28;20521;-72
2022/09/17 11:51:37;;;;;;;5.68;0.77;;;15.30;99.90;;;;;;5018628;28;20513;-72
2022/09/17 11:54:22;;;;;;;3.80;0.65;;;15.50;98.50;;;;;;5020737;28;20498;-72
2022/09/17 11:57:10;;;;;;;5.07;0.75;;;15.70;98.30;;;;;;5024524;28;20045;-70
2022/09/17 11:59:45;;;;;;;10.15;0.73;;;15.80;97.80;;;;;;5021867;28;20485;-71
2022/09/17 12:02:48;;;;;;;3.95;0.60;;;15.80;98.50;;;;;;5020601;28;20063;-73
2022/09/17 12:05:25;;;;;;;5.20;0.60;;;15.90;99.10;;;;;;5022248;28;20037;-71
2022/09/17 12:08:01;;;;;;;6.47;1.23;;;16.00;97.00;;;;;;5026533;28;20037;-71
2022/09/17 12:10:30;;;;;;;5.32;0.55;;;16.00;97.30;;;;;;5026659;28;20037;-70
2022/09/17 12:13:17;;;;;;;5.00;0.80;;;15.90;97.50;;;;;;5027656;28;20044;-71
2022/09/17 12:15:48;;;;;;;6.95;0.70;;;16.00;97.40;;;;;;5028553;28;20087;-71
2022/09/17 12:18:31;;;;;;;;;;;15.90;98.60;;;;;;5032480;28;20455;-72
2022/09/17 12:20:58;;;;;;;5.35;0.40;;;15.80;98.30;;;;;;5028944;28;20004;-71
2022/09/17 12:23:42;;;;;;;2.38;0.40;;;15.80;99.50;;;;;;5026507;28;20136;-68
2022/09/17 12:26:28;;;;;;;13.23;1.05;;;15.80;99.90;;;;;;5022566;28;20034;-69
2022/09/17 12:29:03;;;;;;;11.68;0.50;;;15.80;99.90;;;;;;5018625;28;20061;-70
2022/09/17 12:31:46;;;;;;;5.38;0.60;;;15.80;99.90;;;;;;5022272;28;20038;-70
2022/09/17 12:34:30;;;;;;;7.32;0.88;;;15.80;99.90;;;;;;5021461;28;20088;-71
2022/09/17 12:37:18;;;;;;;4.72;0.32;;;15.70;99.90;;;;;;5017025;28;20029;-72
2022/09/17 12:40:21;;;;;;;6.05;0.65;;;15.70;99.90;;;;;;5022627;28;20131;-70
2022/09/17 12:43:06;;;;;;;5.93;1.05;;;15.70;99.90;;;;;;5018605;28;20440;-70
2022/09/17 12:45:41;;;;;;;2.92;0.52;;;14.90;99.90;;;;;;5021199;28;20119;-70
2022/09/17 12:48:23;;;;;;;8.07;0.70;;;14.30;99.90;;;;;;5019735;28;20175;-69
2022/09/17 12:51:33;;;;;;;14.52;1.02;;;13.90;99.90;;;;;;5020870;28;20374;-66
2022/09/17 12:54:29;;;;;;;7.53;1.33;;;13.60;99.90;;;;;;5002103;28;20033;-69
2022/09/17 12:57:24;;;;;;;8.55;0.88;;;13.50;99.90;;;;;;5021059;28;20033;-67
2022/09/17 12:59:58;;;;;;;11.30;1.10;;;13.50;99.90;;;;;;4994223;28;20030;-68
2022/09/17 13:03:05;;;;;;;8.02;1.02;;;13.50;99.90;;;;;;5022133;28;20098;-70
2022/09/17 13:05:59;;;;;;;7.53;1.67;;;13.50;99.90;;;;;;5020184;28;20021;-71
2022/09/17 13:08:30;;;;;;;4.53;0.55;;;13.60;99.90;;;;;;5016194;28;20040;-70
2022/09/17 13:11:04;;;;;;;8.80;1.05;;;13.80;99.90;;;;;;5015349;28;20061;-72
2022/09/17 13:13:50;;;;;;;11.95;0.68;;;13.90;99.90;;;;;;5018056;28;20033;-71
2022/09/17 13:16:20;;;;;;;8.63;0.60;;;14.10;99.90;;;;;;5018738;28;20030;-70